createdAt,value
2022-10-17T00:01:59.348Z,4.47
2022-10-17T00:04:25.726Z,4.25
2022-10-17T00:06:56.315Z,4.32
2022-10-17T00:09:22.648Z,4.57
2022-10-17T00:11:49.025Z,3.55
2022-10-17T00:14:19.629Z,4.13
2022-10-17T00:16:46.008Z,4.68
2022-10-17T00:19:12.359Z,4.30
2022-10-17T00:21:38.748Z,4.10
2022-10-17T00:24:58.684Z,4.18
2022-10-17T00:32:20.632Z,3.70
2022-10-17T00:34:47.164Z,3.83
2022-10-17T00:37:13.548Z,4.57
2022-10-17T00:39:40.932Z,4.45
2022-10-17T00:42:13.445Z,4.60
2022-10-17T00:44:40.777Z,4.50
2022-10-17T00:47:33.649Z,5.13
2022-10-17T00:52:30.940Z,4.72
2022-10-17T00:55:03.852Z,4.93
2022-10-17T00:57:31.783Z,4.38
2022-10-17T01:00:02.219Z,4.50
2022-10-17T01:02:28.923Z,5.00
2022-10-17T01:04:56.817Z,5.45
2022-10-17T01:07:23.433Z,5.10
2022-10-17T01:09:50.221Z,5.00
2022-10-17T01:12:25.798Z,5.30
2022-10-17T01:15:04.701Z,4.78
2022-10-17T01:17:57.628Z,4.40
2022-10-17T01:21:15.689Z,4.60
2022-10-17T01:24:29.541Z,5.70
2022-10-17T01:27:04.660Z,5.40
2022-10-17T01:30:17.403Z,4.47
2022-10-17T01:32:56.543Z,4.70
2022-10-17T01:35:33.103Z,4.90
2022-10-17T01:38:21.761Z,5.63
2022-10-17T01:40:59.219Z,5.00
2022-10-17T01:43:44.523Z,5.35
2022-10-17T01:46:23.301Z,5.00
2022-10-17T01:48:55.100Z,5.10
2022-10-17T01:51:41.159Z,5.40
2022-10-17T01:54:13.945Z,5.50
2022-10-17T01:56:59.751Z,5.32
2022-10-17T01:59:32.113Z,5.07
2022-10-17T02:01:59.527Z,5.37
2022-10-17T02:04:26.409Z,4.65
2022-10-17T02:06:52.748Z,5.25
2022-10-17T02:09:24.662Z,5.55
2022-10-17T02:12:37.835Z,5.15
2022-10-17T02:15:45.062Z,4.60
2022-10-17T02:18:43.527Z,5.43
2022-10-17T02:21:36.147Z,4.85
2022-10-17T02:24:16.848Z,4.82
2022-10-17T02:27:05.222Z,5.30
2022-10-17T02:29:38.313Z,5.03
2022-10-17T02:32:13.277Z,5.35
2022-10-17T02:34:49.232Z,5.80
2022-10-17T02:37:23.088Z,5.50
2022-10-17T02:39:51.369Z,5.28
2022-10-17T02:42:18.838Z,5.10
2022-10-17T02:44:46.905Z,5.57
2022-10-17T02:47:32.824Z,5.68
2022-10-17T02:49:59.760Z,5.28
2022-10-17T02:52:50.823Z,5.70
2022-10-17T02:55:27.099Z,5.30
2022-10-17T02:58:01.129Z,6.03
2022-10-17T03:00:29.612Z,6.03
2022-10-17T03:02:56.013Z,6.20
2022-10-17T03:05:32.616Z,5.32
2022-10-17T03:07:58.967Z,5.70
2022-10-17T03:10:25.375Z,6.32
2022-10-17T03:12:59.744Z,5.72
2022-10-17T03:15:43.624Z,5.82
2022-10-17T03:18:19.062Z,5.70
2022-10-17T03:20:45.413Z,6.27
2022-10-17T03:23:11.771Z,6.03
2022-10-17T03:25:38.133Z,5.85
2022-10-17T03:28:05.496Z,6.50
2022-10-17T03:30:32.570Z,5.07
2022-10-17T03:32:59.510Z,5.60
2022-10-17T03:35:27.104Z,6.28
2022-10-17T03:37:56.137Z,5.93
2022-10-17T03:40:22.508Z,5.50
2022-10-17T03:42:51.976Z,6.35
2022-10-17T03:45:30.610Z,5.87
2022-10-17T03:47:58.844Z,5.05
2022-10-17T03:51:04.060Z,4.88
2022-10-17T03:53:30.748Z,5.82
2022-10-17T03:56:51.991Z,5.78
2022-10-17T03:59:18.487Z,5.83
2022-10-17T04:01:45.046Z,5.45
2022-10-17T04:04:11.585Z,5.47
2022-10-17T04:06:38.197Z,5.15
2022-10-17T04:09:07.131Z,5.65
2022-10-17T04:11:34.105Z,5.33
2022-10-17T04:14:00.548Z,5.43
2022-10-17T04:16:27.188Z,5.90
2022-10-17T04:18:58.222Z,5.30
2022-10-17T04:21:26.533Z,5.05
2022-10-17T04:23:54.783Z,4.53
2022-10-17T04:26:23.529Z,5.35
2022-10-17T04:28:54.169Z,5.28
2022-10-17T04:31:23.709Z,5.40
2022-10-17T04:33:50.648Z,5.85
2022-10-17T04:36:20.142Z,5.43
2022-10-17T04:38:52.675Z,5.93
2022-10-17T04:41:34.136Z,5.40
2022-10-17T04:44:02.703Z,6.07
2022-10-17T04:46:29.240Z,5.30
2022-10-17T04:48:55.585Z,5.67
2022-10-17T04:51:39.106Z,5.45
2022-10-17T04:54:10.555Z,5.32
2022-10-17T04:56:36.918Z,5.30
2022-10-17T04:59:03.311Z,5.30
2022-10-17T05:01:37.675Z,5.70
2022-10-17T05:04:04.040Z,5.80
2022-10-17T05:06:31.516Z,5.32
2022-10-17T05:08:59.804Z,5.72
2022-10-17T05:11:28.641Z,5.25
2022-10-17T05:13:59.056Z,5.03
2022-10-17T05:16:49.391Z,4.97
2022-10-17T05:19:22.917Z,5.25
2022-10-17T05:22:17.197Z,5.07
2022-10-17T05:24:43.561Z,5.82
2022-10-17T05:27:43.041Z,4.97
2022-10-17T05:30:36.779Z,5.20
2022-10-17T05:33:35.535Z,5.78
2022-10-17T05:36:01.957Z,5.28
2022-10-17T05:38:34.452Z,5.82
2022-10-17T05:41:02.621Z,5.10
2022-10-17T05:43:32.081Z,5.80
2022-10-17T05:45:58.671Z,5.30
2022-10-17T05:48:25.348Z,5.20
2022-10-17T05:51:09.456Z,5.10
2022-10-17T05:53:41.548Z,5.43
2022-10-17T05:56:15.413Z,5.93
2022-10-17T05:58:54.227Z,5.45
2022-10-17T06:01:24.869Z,5.20
2022-10-17T06:03:51.234Z,5.57
2022-10-17T06:06:18.693Z,5.70
2022-10-17T06:08:52.164Z,5.13
2022-10-17T06:11:24.645Z,5.72
2022-10-17T06:13:52.117Z,5.53
2022-10-17T06:16:18.470Z,5.68
2022-10-17T06:18:44.898Z,4.90
2022-10-17T06:21:14.791Z,5.07
2022-10-17T06:23:41.321Z,5.65
2022-10-17T06:26:07.697Z,5.57
2022-10-17T06:28:35.070Z,5.18
2022-10-17T06:31:12.118Z,5.60
2022-10-17T06:33:38.944Z,5.25
2022-10-17T06:36:07.258Z,5.70
2022-10-17T06:38:34.768Z,5.13
2022-10-17T06:41:14.120Z,5.15
2022-10-17T06:43:48.579Z,5.20
2022-10-17T06:46:19.580Z,6.30
2022-10-17T06:48:46.130Z,5.03
2022-10-17T06:51:19.684Z,5.28
2022-10-17T06:53:46.133Z,5.78
2022-10-17T06:56:12.488Z,4.93
2022-10-17T06:58:40.046Z,5.00
2022-10-17T07:01:12.047Z,5.68
2022-10-17T07:03:40.165Z,5.57
2022-10-17T07:06:06.577Z,5.32
2022-10-17T07:08:32.979Z,5.33
2022-10-17T07:10:59.790Z,5.00
2022-10-17T07:13:26.158Z,5.50
2022-10-17T07:15:52.605Z,5.28
2022-10-17T07:18:19.056Z,5.00
2022-10-17T07:20:53.735Z,4.80
2022-10-17T07:23:20.451Z,5.10
2022-10-17T07:25:46.816Z,5.18
2022-10-17T07:28:14.780Z,5.20
2022-10-17T07:30:41.516Z,4.97
2022-10-17T07:33:08.036Z,6.03
2022-10-17T07:35:34.602Z,5.47
2022-10-17T07:38:01.033Z,5.03
2022-10-17T07:40:27.408Z,5.32
2022-10-17T07:42:55.817Z,5.75
2022-10-17T07:45:23.700Z,5.03
2022-10-17T07:47:50.151Z,6.50
2022-10-17T07:50:16.597Z,5.80
2022-10-17T07:52:43.323Z,5.40
2022-10-17T07:55:09.991Z,5.68
2022-10-17T07:57:36.354Z,5.07
2022-10-17T08:00:03.108Z,4.40
2022-10-17T08:02:29.764Z,4.60
2022-10-17T08:04:56.280Z,5.22
2022-10-17T08:07:26.791Z,4.75
2022-10-17T08:09:54.902Z,5.87
2022-10-17T08:12:21.976Z,5.90
2022-10-17T08:14:48.364Z,6.57
2022-10-17T08:17:14.849Z,5.97
2022-10-17T08:19:41.285Z,5.03
2022-10-17T08:22:08.422Z,5.37
2022-10-17T08:24:35.069Z,5.47
2022-10-17T08:27:01.612Z,5.07
2022-10-17T08:29:28.087Z,5.30
2022-10-17T08:31:58.681Z,5.65
2022-10-17T08:34:32.240Z,5.30
2022-10-17T08:37:16.430Z,5.50
2022-10-17T08:39:45.479Z,4.82
2022-10-17T08:42:33.448Z,5.45
2022-10-17T08:45:24.321Z,5.30
2022-10-17T08:48:02.285Z,5.13
2022-10-17T08:50:36.767Z,5.07
2022-10-17T08:53:19.917Z,5.15
2022-10-17T08:55:49.000Z,5.22
2022-10-17T08:58:22.414Z,4.97
2022-10-17T09:01:06.893Z,5.37
2022-10-17T09:03:47.504Z,5.15
2022-10-17T09:06:30.059Z,5.43
2022-10-17T09:09:15.584Z,5.15
2022-10-17T09:11:50.976Z,5.20
2022-10-17T09:14:23.428Z,5.40
2022-10-17T09:17:05.363Z,5.28
2022-10-17T09:19:36.621Z,5.00
2022-10-17T09:22:09.681Z,5.18
2022-10-17T09:24:53.314Z,5.72
2022-10-17T09:27:35.407Z,18.87
2022-10-17T09:30:40.431Z,26.17
2022-10-17T09:33:23.091Z,28.20
2022-10-17T09:36:00.325Z,21.17
2022-10-17T09:38:36.034Z,14.63
2022-10-17T09:41:02.867Z,11.43
2022-10-17T09:43:29.355Z,11.18
2022-10-17T09:46:20.382Z,9.57
2022-10-17T09:48:53.900Z,6.57
2022-10-17T09:51:26.104Z,6.13
2022-10-17T09:53:59.791Z,6.47
2022-10-17T09:56:26.273Z,6.78
2022-10-17T09:58:57.219Z,5.88
2022-10-17T10:01:29.359Z,6.03
2022-10-17T10:04:11.868Z,6.18
2022-10-17T10:06:39.509Z,10.47
2022-10-17T10:09:07.337Z,25.33
2022-10-17T10:11:56.602Z,25.17
2022-10-17T10:14:28.949Z,23.55
2022-10-17T10:16:56.048Z,18.33
2022-10-17T10:19:32.629Z,16.20
2022-10-17T10:22:03.457Z,11.23
2022-10-17T10:24:31.172Z,11.70
2022-10-17T10:27:00.869Z,8.90
2022-10-17T10:29:44.517Z,8.73
2022-10-17T10:32:28.601Z,7.73
2022-10-17T10:35:18.917Z,7.20
2022-10-17T10:37:49.788Z,7.07
2022-10-17T10:40:39.049Z,10.13
2022-10-17T10:43:06.355Z,9.88
2022-10-17T10:45:47.672Z,8.50
2022-10-17T10:48:25.438Z,7.88
2022-10-17T10:50:51.763Z,6.32
2022-10-17T10:53:45.634Z,9.55
2022-10-17T10:56:21.099Z,9.48
2022-10-17T10:59:26.013Z,7.50
2022-10-17T11:02:17.572Z,5.70
2022-10-17T11:05:01.907Z,6.43
2022-10-17T11:08:03.916Z,6.22
2022-10-17T11:11:13.694Z,6.00
2022-10-17T11:13:47.778Z,6.03
2022-10-17T11:16:40.072Z,4.43
2022-10-17T11:19:47.384Z,5.05
2022-10-17T11:22:19.029Z,4.90
2022-10-17T11:25:22.216Z,5.57
2022-10-17T11:27:48.689Z,5.53
2022-10-17T11:30:16.535Z,6.55
2022-10-17T11:32:48.899Z,6.55
2022-10-17T11:35:23.608Z,6.78
2022-10-17T11:38:07.879Z,6.13
2022-10-17T11:40:38.644Z,5.90
2022-10-17T11:43:23.151Z,6.32
2022-10-17T11:45:56.016Z,6.13
2022-10-17T11:48:28.184Z,5.18
2022-10-17T11:54:17.663Z,5.20
2022-10-17T11:57:28.851Z,5.88
2022-10-17T12:00:39.280Z,5.15
2022-10-17T12:03:26.808Z,5.50
2022-10-17T12:06:15.014Z,5.30
2022-10-17T12:08:54.581Z,5.50
2022-10-17T12:11:41.875Z,5.13
2022-10-17T12:14:46.594Z,5.75
2022-10-17T12:17:39.299Z,5.20
2022-10-17T12:20:21.304Z,5.40
2022-10-17T12:23:21.844Z,6.80
2022-10-17T12:26:09.586Z,6.80
2022-10-17T12:28:49.528Z,5.45
2022-10-17T12:31:17.409Z,5.22
2022-10-17T12:33:53.135Z,4.60
2022-10-17T12:36:22.502Z,4.57
2022-10-17T12:39:11.741Z,4.93
2022-10-17T12:41:38.073Z,5.30
2022-10-17T12:44:28.738Z,4.80
2022-10-17T12:47:05.033Z,5.10
2022-10-17T12:49:48.809Z,6.13
2022-10-17T12:52:27.106Z,5.90
2022-10-17T12:55:11.385Z,5.80
2022-10-17T12:57:54.549Z,5.90
2022-10-17T13:01:11.770Z,5.78
2022-10-17T13:03:44.542Z,5.53
2022-10-17T13:06:23.638Z,5.05
2022-10-17T13:09:34.845Z,6.68
2022-10-17T13:12:25.233Z,5.40
2022-10-17T13:14:54.636Z,6.28
2022-10-17T13:17:27.820Z,6.07
2022-10-17T13:20:03.344Z,6.07
2022-10-17T13:22:32.782Z,6.07
2022-10-17T13:25:17.239Z,6.72
2022-10-17T13:28:50.259Z,6.07
2022-10-17T13:31:43.904Z,6.03
2022-10-17T13:34:41.356Z,5.65
2022-10-17T13:37:12.836Z,5.75
2022-10-17T13:39:55.312Z,5.90
2022-10-17T13:42:27.350Z,6.60
2022-10-17T13:44:55.006Z,6.97
2022-10-17T13:47:27.675Z,8.00
2022-10-17T13:50:43.231Z,7.68
2022-10-17T13:53:16.419Z,6.28
2022-10-17T13:56:29.891Z,6.25
2022-10-17T13:59:00.237Z,6.03
2022-10-17T14:01:29.196Z,5.88
2022-10-17T14:04:07.745Z,5.63
2022-10-17T14:06:44.074Z,5.70
2022-10-17T14:09:25.592Z,6.20
2022-10-17T14:12:12.514Z,5.73
2022-10-17T14:15:05.048Z,5.55
2022-10-17T14:17:29.998Z,6.10
2022-10-17T14:23:04.526Z,5.93
2022-10-17T14:25:39.498Z,5.50
2022-10-17T14:28:12.851Z,5.38
2022-10-17T14:30:57.297Z,5.07
2022-10-17T14:33:28.132Z,5.40
2022-10-17T14:35:56.684Z,5.90
2022-10-17T14:38:24.405Z,6.10
2022-10-17T14:41:29.710Z,5.85
2022-10-17T14:43:57.153Z,5.25
2022-10-17T14:46:23.704Z,5.45
2022-10-17T14:48:56.282Z,4.90
2022-10-17T14:51:22.659Z,5.53
2022-10-17T14:54:05.607Z,5.25
2022-10-17T14:56:55.932Z,5.40
2022-10-17T14:59:51.446Z,5.40
2022-10-17T15:02:11.119Z,5.05
2022-10-17T15:04:39.600Z,5.03
2022-10-17T15:07:22.096Z,4.68
2022-10-17T15:09:51.376Z,5.55
2022-10-17T15:12:22.352Z,5.38
2022-10-17T15:14:48.746Z,4.97
2022-10-17T15:21:38.397Z,7.30
2022-10-17T15:24:07.077Z,6.75
2022-10-17T15:27:32.690Z,6.22
2022-10-17T15:29:59.579Z,5.47
2022-10-17T15:32:28.016Z,6.00
2022-10-17T15:34:54.416Z,5.88
2022-10-17T15:37:25.291Z,6.30
2022-10-17T15:39:54.633Z,6.38
2022-10-17T15:42:26.959Z,5.97
2022-10-17T15:44:55.695Z,6.80
2022-10-17T15:47:30.977Z,5.65
2022-10-17T15:49:57.666Z,6.38
2022-10-17T15:52:24.336Z,5.15
2022-10-17T15:54:51.104Z,5.72
2022-10-17T15:57:38.469Z,5.17
2022-10-17T16:00:16.233Z,6.30
2022-10-17T16:02:50.744Z,5.07
2022-10-17T16:05:30.421Z,5.97
2022-10-17T16:07:57.809Z,7.07
2022-10-17T16:10:33.424Z,6.50
2022-10-17T16:13:17.556Z,6.22
2022-10-17T16:15:43.963Z,5.65
2022-10-17T16:18:10.331Z,5.03
2022-10-17T16:20:37.917Z,5.65
2022-10-17T16:23:05.374Z,5.07
2022-10-17T16:25:32.893Z,4.43
2022-10-17T16:28:08.484Z,4.88
2022-10-17T16:30:50.279Z,4.55
2022-10-17T16:33:21.833Z,4.53
2022-10-17T16:35:55.403Z,4.20
2022-10-17T16:38:27.945Z,4.50
2022-10-17T16:40:54.404Z,4.68
2022-10-17T16:43:50.606Z,4.60
2022-10-17T16:46:27.770Z,4.68
2022-10-17T16:48:57.873Z,5.10
2022-10-17T16:51:31.304Z,5.10
2022-10-17T16:54:18.081Z,5.07
2022-10-17T16:56:59.852Z,4.13
2022-10-17T16:59:30.412Z,4.80
2022-10-17T17:02:03.229Z,6.07
2022-10-17T17:04:40.152Z,4.97
2022-10-17T17:07:11.722Z,4.97
2022-10-17T17:09:39.273Z,5.88
2022-10-17T17:12:06.335Z,5.18
2022-10-17T17:14:42.944Z,5.23
2022-10-17T17:18:02.641Z,4.70
2022-10-17T17:20:32.724Z,4.57
2022-10-17T17:22:59.119Z,4.60
2022-10-17T17:25:26.608Z,5.20
2022-10-17T17:28:02.926Z,4.40
2022-10-17T17:30:29.833Z,4.43
2022-10-17T17:33:01.573Z,4.95
2022-10-17T17:35:38.567Z,5.50
2022-10-17T17:38:07.565Z,8.15
2022-10-17T17:40:34.611Z,10.87
2022-10-17T17:43:07.269Z,11.93
2022-10-17T17:45:34.719Z,11.23
2022-10-17T17:48:20.410Z,11.20
2022-10-17T17:50:47.037Z,10.27
2022-10-17T17:53:15.781Z,9.07
2022-10-17T17:55:47.110Z,9.73
2022-10-17T17:58:13.860Z,8.25
2022-10-17T18:00:40.627Z,9.82
2022-10-17T18:03:07.613Z,10.70
2022-10-17T18:05:46.029Z,9.57
2022-10-17T18:08:12.465Z,8.07
2022-10-17T18:10:38.859Z,7.57
2022-10-17T18:13:12.240Z,6.68
2022-10-17T18:15:41.565Z,6.40
2022-10-17T18:18:07.890Z,5.97
2022-10-17T18:20:35.285Z,8.23
2022-10-17T18:23:21.361Z,9.75
2022-10-17T18:26:00.872Z,8.73
2022-10-17T18:28:27.789Z,7.93
2022-10-17T18:30:54.485Z,6.67
2022-10-17T18:34:00.190Z,6.65
2022-10-17T18:36:39.739Z,8.57
2022-10-17T18:39:06.120Z,10.25
2022-10-17T18:41:39.778Z,9.45
2022-10-17T18:44:47.959Z,10.60
2022-10-17T18:47:14.327Z,10.02
2022-10-17T18:49:40.928Z,11.45
2022-10-17T18:52:07.496Z,11.10
2022-10-17T18:54:39.979Z,11.10
2022-10-17T18:57:06.910Z,9.10
2022-10-17T18:59:33.399Z,9.10
2022-10-17T19:02:05.144Z,8.73
2022-10-17T19:04:31.605Z,8.35
2022-10-17T19:07:09.197Z,8.18
2022-10-17T19:09:41.472Z,8.87
2022-10-17T19:12:08.928Z,8.50
2022-10-17T19:14:35.559Z,9.18
2022-10-17T19:17:02.635Z,7.97
2022-10-17T19:19:49.885Z,7.63
2022-10-17T19:22:20.477Z,7.93
2022-10-17T19:26:02.790Z,9.25
2022-10-17T19:28:29.602Z,8.07
2022-10-17T19:30:56.028Z,7.85
2022-10-17T19:33:22.451Z,7.93
2022-10-17T19:35:56.675Z,7.03
2022-10-17T19:38:23.108Z,7.82
2022-10-17T19:40:49.660Z,7.30
2022-10-17T19:43:18.529Z,7.03
2022-10-17T19:45:58.172Z,8.10
2022-10-17T19:48:25.384Z,8.60
2022-10-17T19:50:52.830Z,7.57
2022-10-17T19:53:21.823Z,8.32
2022-10-17T19:55:50.165Z,7.25
2022-10-17T19:58:16.650Z,8.07
2022-10-17T20:00:51.165Z,7.93
2022-10-17T20:03:18.639Z,7.85
2022-10-17T20:05:45.997Z,8.27
2022-10-17T20:08:13.018Z,8.32
2022-10-17T20:10:39.915Z,8.43
2022-10-17T20:13:06.323Z,8.20
2022-10-17T20:15:32.728Z,8.65
2022-10-17T20:17:59.318Z,8.30
2022-10-17T20:20:25.688Z,8.50
2022-10-17T20:22:52.052Z,8.15
2022-10-17T20:25:18.594Z,8.13
2022-10-17T20:27:45.059Z,8.35
2022-10-17T20:30:11.848Z,9.15
2022-10-17T20:32:39.983Z,9.30
2022-10-17T20:35:07.412Z,8.23
2022-10-17T20:37:39.886Z,9.17
2022-10-17T20:40:37.976Z,9.07
2022-10-17T20:42:55.601Z,7.85
2022-10-17T20:45:37.315Z,8.45
2022-10-17T20:48:17.409Z,9.00
2022-10-17T20:50:44.386Z,8.83
2022-10-17T20:53:37.331Z,8.57
2022-10-17T20:56:08.794Z,9.35
2022-10-17T20:58:35.843Z,9.23
2022-10-17T21:01:11.527Z,9.32
2022-10-17T21:03:42.395Z,10.00
2022-10-17T21:06:12.432Z,10.52
2022-10-17T21:08:38.863Z,10.55
2022-10-17T21:11:15.747Z,10.02
2022-10-17T21:13:42.484Z,10.10
2022-10-17T21:16:13.819Z,10.53
2022-10-17T21:18:56.455Z,10.50
2022-10-17T21:21:26.787Z,9.18
2022-10-17T21:23:56.581Z,9.32
2022-10-17T21:26:40.559Z,9.80
2022-10-17T21:29:12.621Z,9.67
2022-10-17T21:32:33.480Z,9.27
2022-10-17T21:35:10.104Z,8.25
2022-10-17T21:37:36.545Z,8.45
2022-10-17T21:40:03.131Z,9.25
2022-10-17T21:42:29.859Z,8.57
2022-10-17T21:44:56.435Z,9.27
2022-10-17T21:47:25.522Z,9.70
2022-10-17T21:49:54.005Z,9.00
2022-10-17T21:52:20.377Z,9.23
2022-10-17T21:54:46.722Z,8.80
2022-10-17T21:57:13.113Z,8.50
2022-10-17T21:59:39.938Z,8.63
2022-10-17T22:02:06.345Z,8.13
2022-10-17T22:04:48.202Z,8.43
2022-10-17T22:07:19.581Z,8.50
2022-10-17T22:09:45.945Z,8.60
2022-10-17T22:12:40.547Z,8.93
2022-10-17T22:15:07.557Z,9.35
2022-10-17T22:17:35.975Z,9.45
2022-10-17T22:20:02.357Z,9.23
2022-10-17T22:22:39.095Z,9.30
2022-10-17T22:25:06.079Z,8.52
2022-10-17T22:27:40.500Z,8.93
2022-10-17T22:30:23.407Z,8.73
2022-10-17T22:32:49.751Z,8.87
2022-10-17T22:35:16.131Z,8.57
2022-10-17T22:37:42.527Z,9.18
2022-10-17T22:40:09.214Z,8.05
2022-10-17T22:42:38.751Z,8.50
2022-10-17T22:45:20.327Z,8.63
2022-10-17T22:47:53.987Z,8.25
2022-10-17T22:50:21.632Z,9.75
2022-10-17T22:53:00.997Z,8.40
2022-10-17T22:55:40.773Z,8.35
2022-10-17T22:58:07.234Z,8.03
2022-10-17T23:00:39.692Z,8.20
2022-10-17T23:03:06.063Z,8.32
2022-10-17T23:05:32.391Z,8.15
2022-10-17T23:07:58.907Z,9.73
2022-10-17T23:10:25.337Z,8.70
2022-10-17T23:12:51.688Z,8.50
2022-10-17T23:15:18.191Z,7.57
2022-10-17T23:17:44.547Z,8.48
2022-10-17T23:20:11.059Z,8.98
2022-10-17T23:22:37.501Z,8.53
2022-10-17T23:25:04.128Z,8.77
2022-10-17T23:27:36.809Z,8.18
2022-10-17T23:30:04.543Z,7.75
2022-10-17T23:32:31.167Z,8.57
2022-10-17T23:35:05.760Z,7.43
2022-10-17T23:37:32.681Z,7.88
2022-10-17T23:39:59.215Z,8.63
2022-10-17T23:42:25.701Z,7.47
2022-10-17T23:44:56.162Z,7.70
2022-10-17T23:47:22.516Z,9.90
2022-10-17T23:49:49.063Z,10.00
2022-10-17T23:52:20.558Z,9.07
2022-10-17T23:54:46.932Z,9.07
2022-10-17T23:57:23.716Z,9.80
2022-10-17T23:59:50.071Z,8.80
